WetterOnline ( https://www.wetteronline.de )

Wetter aktuell Fehrbellin

Aktuelles Wetter: Neuruppin - Alt Ruppin (50m)

6-stündlich | Neueste Meldungen
Ortszeit Temperatur Wetter
Mo, 17.06. 20:00 24.7° C fast wolkenlos
Mo, 17.06. 14:00 25.0° C wolkenlos
Mo, 17.06. 8:00 19.6° C wolkenlos
Mo, 17.06. 2:00 16.3° C wolkig
So, 16.06. 20:00 19.8° C wolkig
So, 16.06. 14:00 20.3° C bedeckt
So, 16.06. 8:00 16.6° C wolkig
So, 16.06. 2:00 16.6° C wolkig
Ortszeit Temperatur Wetter
Mo, 17.06. 20:10 24.5° C wolkenlos
Mo, 17.06. 20:00 24.7° C fast wolkenlos
Mo, 17.06. 19:50 24.7° C fast wolkenlos
Mo, 17.06. 19:40 24.8° C wolkenlos
Mo, 17.06. 19:30 24.8° C leicht bewölkt
Mo, 17.06. 19:20 24.8° C leicht bewölkt
Mo, 17.06. 19:00 26.3° C bewölkt
Mo, 17.06. 18:30 25.8° C fast wolkenlos
Mo, 17.06. 18:00 25.4° C wolkenlos
Mo, 17.06. 17:30 25.8° C fast wolkenlos
Mo, 17.06. 17:00 25.5° C leicht bewölkt
Ortszeit Relative Feuchte Sichtweite
Mo, 17.06. 20:00 44% 45 km
Mo, 17.06. 14:00 39% 45 km
Mo, 17.06. 8:00 69% 35 km
Mo, 17.06. 2:00 85% 40 km
So, 16.06. 20:00 64% 60 km
So, 16.06. 14:00 57% 50 km
So, 16.06. 8:00 70% 60 km
So, 16.06. 2:00 76% 60 km
Ortszeit Relative Feuchte Sichtweite
Mo, 17.06. 20:10 45% -
Mo, 17.06. 20:00 44% 45 km
Mo, 17.06. 19:50 44% -
Mo, 17.06. 19:40 44% -
Mo, 17.06. 19:30 44% 55 km
Mo, 17.06. 19:20 44% -
Mo, 17.06. 19:00 39% 35 km
Mo, 17.06. 18:30 41% 55 km
Mo, 17.06. 18:00 43% 55 km
Mo, 17.06. 17:30 40% 17 km
Mo, 17.06. 17:00 39% 65 km
Ortszeit Niederschlagsmenge Niederschlagsart
Mo, 17.06. 20:00 0.0 l/m2 in 12 Std. -
Mo, 17.06. 14:00 0.0 l/m2 in 6 Std. -
Mo, 17.06. 8:00 0.0 l/m2 in 12 Std. -
Mo, 17.06. 2:00 0.0 l/m2 in 6 Std. -
So, 16.06. 20:00 0.2 l/m2 in 12 Std. Regen
So, 16.06. 14:00 0.0 l/m2 in 6 Std. -
So, 16.06. 8:00 0.0 l/m2 in 12 Std. -
So, 16.06. 2:00 0.0 l/m2 in 6 Std. -
Ortszeit Niederschlagsmenge Niederschlagsart
Mo, 17.06. 20:10 keine Meldung -
Mo, 17.06. 20:00 0.0 l/m2 in 1 Std. -
Mo, 17.06. 19:50 keine Meldung -
Mo, 17.06. 19:40 keine Meldung -
Mo, 17.06. 19:30 0.0 l/m2 in 1 Std. -
Mo, 17.06. 19:20 keine Meldung -
Mo, 17.06. 19:00 0.0 l/m2 in 1 Std. -
Mo, 17.06. 18:30 0.0 l/m2 in 1 Std. -
Mo, 17.06. 18:00 0.0 l/m2 in 1 Std. -
Mo, 17.06. 17:30 0.0 l/m2 in 1 Std. -
Mo, 17.06. 17:00 0.0 l/m2 in 1 Std. -
Ortszeit Stärke Spitze Richtung
km/h Bft. km/h Grad Sektor
Mo, 17.06. 20:00 7 2 22 50° NO
Mo, 17.06. 14:00 7 2 14 250° W
Mo, 17.06. 8:00 4 1 7 220° SW
Mo, 17.06. 2:00 4 1 11 70° O
So, 16.06. 20:00 4 1 22 200° S
So, 16.06. 14:00 13 3 24 250° W
So, 16.06. 8:00 9 2 31 330° NW
So, 16.06. 2:00 9 2 39 300° NW
Ortszeit Stärke Spitze Richtung
km/h Bft. km/h Grad Sektor
Mo, 17.06. 20:10 7 2 - 60° NO
Mo, 17.06. 20:00 7 2 18 50° NO
Mo, 17.06. 19:50 7 2 - 50° NO
Mo, 17.06. 19:40 7 2 - 60° NO
Mo, 17.06. 19:30 9 2 19 50° NO
Mo, 17.06. 19:20 9 2 - 50° NO
Mo, 17.06. 19:00 4 1 14 140° SO
Mo, 17.06. 18:30 4 1 14 350° N
Mo, 17.06. 18:00 7 2 20 30° NO
Mo, 17.06. 17:30 11 2 22 90° O
Mo, 17.06. 17:00 7 2 18 300° NW
Ortszeit Untergrenze Bedeckung Gattung
total tief tief mittel hoch
Mo, 17.06. 20:00 1800 m 1/8 1/8 - - -
Mo, 17.06. 14:00 - 0/8 0/8 - - -
Mo, 17.06. 8:00 - 0/8 0/8 - - -
Mo, 17.06. 2:00 1410 m 8/8 1/8 - - -
So, 16.06. 20:00 2400 m 8/8 3/8 - - -
So, 16.06. 14:00 3300 m 8/8 8/8 - - -
So, 16.06. 8:00 8400 m 8/8 0/8 - - -
So, 16.06. 2:00 8700 m 8/8 0/8 - - -
Ortszeit Bedeckungsgrad in Achtel und Wolkenuntergrenze
Mo, 17.06. 20:10 keine Wolken
Mo, 17.06. 20:00 1(1800m)
Mo, 17.06. 19:50 1(1800m)
Mo, 17.06. 19:40 keine Wolken
Mo, 17.06. 19:30 1(1800m) 3(2700m)
Mo, 17.06. 19:20 1(1800m) 3(2700m) 4(9000m)
Mo, 17.06. 19:00 7(1500m) 8(2700m)
Mo, 17.06. 18:30 3(1800m)
Mo, 17.06. 18:00 keine Wolken
Mo, 17.06. 17:30 1(1800m)
Mo, 17.06. 17:00 1(1800m) 4(2100m)
Ortszeit Luftdruck NN (hPa) Tendenz (hPa in 3 Std.)
Mo, 17.06. 20:00 1020 - 1,0
Mo, 17.06. 14:00 1022 - 0,8
Mo, 17.06. 8:00 1023 + 0,7
Mo, 17.06. 2:00 1022 + 0,5
So, 16.06. 20:00 1021 - 0,4
So, 16.06. 14:00 1021 + 1,3
So, 16.06. 8:00 1018 + 1,5
So, 16.06. 2:00 1016 + 1,5
Ortszeit Luftdruck NN (hPa) Tendenz (hPa in 3 Std.)
Mo, 17.06. 20:10 1020 keine Meldung
Mo, 17.06. 20:00 1020 - 1,0
Mo, 17.06. 19:50 1020 keine Meldung
Mo, 17.06. 19:40 1020 keine Meldung
Mo, 17.06. 19:30 1020 - 0,9
Mo, 17.06. 19:20 1020 keine Meldung
Mo, 17.06. 19:00 1020 - 1,0
Mo, 17.06. 18:30 1020 - 1,1
Mo, 17.06. 18:00 1020 - 1,0
Mo, 17.06. 17:30 1020 - 0,9
Mo, 17.06. 17:00 1021 - 1,0
Ortszeit Schneehöhe (cm)
Mo, 17.06. 20:00 -
Mo, 17.06. 14:00 -
Mo, 17.06. 8:00 -
Mo, 17.06. 2:00 -
So, 16.06. 20:00 -
So, 16.06. 14:00 -
So, 16.06. 8:00 -
So, 16.06. 2:00 -
Ortszeit Schneehöhe (cm)
Mo, 17.06. 20:10 -
Mo, 17.06. 20:00 -
Mo, 17.06. 19:50 -
Mo, 17.06. 19:40 -
Mo, 17.06. 19:30 -
Mo, 17.06. 19:20 -
Mo, 17.06. 19:00 -
Mo, 17.06. 18:30 -
Mo, 17.06. 18:00 -
Mo, 17.06. 17:30 -
Mo, 17.06. 17:00 -
Link zu dieser Seite / Seite empfehlen

Das Wetter in ...